sensor_id;sensor_type;location;lat;lon;timestamp;P1;durP1;ratioP1;P2;durP2;ratioP2
61895;SDS011;47835;52.778;5.956;2024-03-23T00:52:45;14.57;;;5.68;;
61895;SDS011;47835;52.778;5.956;2024-03-23T00:55:11;20.30;;;6.32;;
61895;SDS011;47835;52.778;5.956;2024-03-23T00:57:37;15.18;;;6.10;;
61895;SDS011;47835;52.778;5.956;2024-03-23T01:00:02;12.80;;;6.18;;
61895;SDS011;47835;52.778;5.956;2024-03-23T01:02:31;12.23;;;5.97;;
61895;SDS011;47835;52.778;5.956;2024-03-23T01:04:57;15.20;;;6.10;;
61895;SDS011;47835;52.778;5.956;2024-03-23T01:07:22;14.05;;;5.70;;
61895;SDS011;47835;52.778;5.956;2024-03-23T01:09:48;14.27;;;6.05;;
61895;SDS011;47835;52.778;5.956;2024-03-23T01:12:14;14.02;;;6.43;;
61895;SDS011;47835;52.778;5.956;2024-03-23T01:14:39;14.32;;;6.13;;
61895;SDS011;47835;52.778;5.956;2024-03-23T01:17:05;16.63;;;6.65;;
61895;SDS011;47835;52.778;5.956;2024-03-23T01:19:30;12.50;;;6.32;;
61895;SDS011;47835;52.778;5.956;2024-03-23T01:21:56;12.60;;;5.82;;
61895;SDS011;47835;52.778;5.956;2024-03-23T01:24:22;16.23;;;7.18;;
61895;SDS011;47835;52.778;5.956;2024-03-23T01:26:47;16.15;;;6.60;;
61895;SDS011;47835;52.778;5.956;2024-03-23T01:29:13;13.75;;;6.45;;
61895;SDS011;47835;52.778;5.956;2024-03-23T01:31:38;15.20;;;6.07;;
61895;SDS011;47835;52.778;5.956;2024-03-23T01:34:04;19.63;;;7.82;;
61895;SDS011;47835;52.778;5.956;2024-03-23T01:36:30;13.10;;;6.35;;
61895;SDS011;47835;52.778;5.956;2024-03-23T01:38:55;19.98;;;6.60;;
61895;SDS011;47835;52.778;5.956;2024-03-23T01:41:21;15.60;;;5.93;;
61895;SDS011;47835;52.778;5.956;2024-03-23T01:43:46;12.82;;;6.28;;
61895;SDS011;47835;52.778;5.956;2024-03-23T01:46:12;12.90;;;6.20;;
61895;SDS011;47835;52.778;5.956;2024-03-23T01:48:38;14.27;;;6.70;;
61895;SDS011;47835;52.778;5.956;2024-03-23T01:51:04;20.63;;;6.40;;
61895;SDS011;47835;52.778;5.956;2024-03-23T01:53:30;16.10;;;6.18;;
61895;SDS011;47835;52.778;5.956;2024-03-23T01:55:56;15.82;;;6.65;;
61895;SDS011;47835;52.778;5.956;2024-03-23T01:58:22;13.13;;;6.35;;
61895;SDS011;47835;52.778;5.956;2024-03-23T02:00:48;16.50;;;6.47;;
61895;SDS011;47835;52.778;5.956;2024-03-23T02:03:26;13.85;;;6.28;;
61895;SDS011;47835;52.778;5.956;2024-03-23T02:05:55;15.88;;;6.13;;
61895;SDS011;47835;52.778;5.956;2024-03-23T02:08:22;12.73;;;6.70;;
61895;SDS011;47835;52.778;5.956;2024-03-23T02:10:49;11.25;;;6.30;;
61895;SDS011;47835;52.778;5.956;2024-03-23T02:13:15;14.48;;;5.80;;
61895;SDS011;47835;52.778;5.956;2024-03-23T02:15:41;16.50;;;5.63;;
61895;SDS011;47835;52.778;5.956;2024-03-23T02:18:07;20.55;;;5.97;;
61895;SDS011;47835;52.778;5.956;2024-03-23T02:20:34;18.23;;;6.43;;
61895;SDS011;47835;52.778;5.956;2024-03-23T02:23:00;17.40;;;6.45;;
61895;SDS011;47835;52.778;5.956;2024-03-23T02:25:26;13.20;;;6.22;;
61895;SDS011;47835;52.778;5.956;2024-03-23T02:27:52;9.65;;;5.75;;
61895;SDS011;47835;52.778;5.956;2024-03-23T02:30:19;13.20;;;5.78;;
61895;SDS011;47835;52.778;5.956;2024-03-23T02:32:45;14.13;;;6.32;;
61895;SDS011;47835;52.778;5.956;2024-03-23T02:35:11;8.32;;;5.43;;
61895;SDS011;47835;52.778;5.956;2024-03-23T02:37:36;12.20;;;5.82;;
61895;SDS011;47835;52.778;5.956;2024-03-23T02:40:02;12.50;;;5.53;;
61895;SDS011;47835;52.778;5.956;2024-03-23T02:42:28;12.10;;;5.65;;
61895;SDS011;47835;52.778;5.956;2024-03-23T02:44:54;11.63;;;5.80;;
61895;SDS011;47835;52.778;5.956;2024-03-23T02:47:20;11.02;;;5.30;;
61895;SDS011;47835;52.778;5.956;2024-03-23T02:49:45;12.30;;;5.15;;
61895;SDS011;47835;52.778;5.956;2024-03-23T02:52:11;12.27;;;5.60;;
61895;SDS011;47835;52.778;5.956;2024-03-23T02:54:36;19.35;;;6.30;;
61895;SDS011;47835;52.778;5.956;2024-03-23T02:57:02;16.00;;;6.22;;
61895;SDS011;47835;52.778;5.956;2024-03-23T02:59:28;15.80;;;5.32;;
61895;SDS011;47835;52.778;5.956;2024-03-23T03:01:53;15.98;;;6.00;;
61895;SDS011;47835;52.778;5.956;2024-03-23T03:04:19;18.85;;;5.97;;
61895;SDS011;47835;52.778;5.956;2024-03-23T03:06:48;11.00;;;5.10;;
61895;SDS011;47835;52.778;5.956;2024-03-23T03:09:14;13.93;;;5.75;;
61895;SDS011;47835;52.778;5.956;2024-03-23T03:11:40;16.98;;;6.30;;
61895;SDS011;47835;52.778;5.956;2024-03-23T03:14:06;11.57;;;5.28;;
61895;SDS011;47835;52.778;5.956;2024-03-23T03:16:33;13.57;;;6.10;;
61895;SDS011;47835;52.778;5.956;2024-03-23T03:18:58;12.63;;;5.75;;
61895;SDS011;47835;52.778;5.956;2024-03-23T03:21:24;14.43;;;5.95;;
61895;SDS011;47835;52.778;5.956;2024-03-23T03:23:50;15.32;;;5.57;;
61895;SDS011;47835;52.778;5.956;2024-03-23T03:26:16;12.23;;;5.65;;
61895;SDS011;47835;52.778;5.956;2024-03-23T03:28:42;9.93;;;5.47;;
61895;SDS011;47835;52.778;5.956;2024-03-23T03:31:09;10.65;;;4.85;;
61895;SDS011;47835;52.778;5.956;2024-03-23T03:33:34;9.73;;;5.40;;
61895;SDS011;47835;52.778;5.956;2024-03-23T03:36:00;12.25;;;5.22;;
61895;SDS011;47835;52.778;5.956;2024-03-23T03:38:26;10.07;;;5.05;;
61895;SDS011;47835;52.778;5.956;2024-03-23T03:40:51;13.68;;;5.57;;
61895;SDS011;47835;52.778;5.956;2024-03-23T03:43:18;18.60;;;5.53;;
61895;SDS011;47835;52.778;5.956;2024-03-23T03:45:51;13.52;;;5.40;;
61895;SDS011;47835;52.778;5.956;2024-03-23T03:48:20;13.88;;;5.28;;
61895;SDS011;47835;52.778;5.956;2024-03-23T03:50:45;12.55;;;4.93;;
61895;SDS011;47835;52.778;5.956;2024-03-23T03:53:11;9.05;;;4.97;;
61895;SDS011;47835;52.778;5.956;2024-03-23T03:55:37;12.65;;;4.93;;
61895;SDS011;47835;52.778;5.956;2024-03-23T03:58:02;14.57;;;5.80;;
61895;SDS011;47835;52.778;5.956;2024-03-23T04:00:29;12.70;;;5.95;;
61895;SDS011;47835;52.778;5.956;2024-03-23T04:02:55;11.57;;;5.13;;
61895;SDS011;47835;52.778;5.956;2024-03-23T04:05:21;11.32;;;5.03;;
61895;SDS011;47835;52.778;5.956;2024-03-23T04:07:47;13.60;;;5.00;;
61895;SDS011;47835;52.778;5.956;2024-03-23T04:10:13;14.13;;;5.43;;
61895;SDS011;47835;52.778;5.956;2024-03-23T04:12:38;11.70;;;4.63;;
61895;SDS011;47835;52.778;5.956;2024-03-23T04:15:04;9.73;;;5.63;;
61895;SDS011;47835;52.778;5.956;2024-03-23T04:17:30;13.13;;;5.18;;
61895;SDS011;47835;52.778;5.956;2024-03-23T04:20:00;12.57;;;6.05;;
61895;SDS011;47835;52.778;5.956;2024-03-23T04:22:26;12.85;;;4.97;;
61895;SDS011;47835;52.778;5.956;2024-03-23T04:24:55;13.32;;;4.65;;
61895;SDS011;47835;52.778;5.956;2024-03-23T04:27:22;8.38;;;5.30;;
61895;SDS011;47835;52.778;5.956;2024-03-23T04:29:48;12.70;;;5.07;;
61895;SDS011;47835;52.778;5.956;2024-03-23T04:32:15;9.45;;;4.43;;
61895;SDS011;47835;52.778;5.956;2024-03-23T04:34:41;7.13;;;4.60;;
61895;SDS011;47835;52.778;5.956;2024-03-23T04:37:08;13.45;;;4.45;;
61895;SDS011;47835;52.778;5.956;2024-03-23T04:39:34;9.82;;;4.60;;
61895;SDS011;47835;52.778;5.956;2024-03-23T04:42:04;13.30;;;4.80;;
61895;SDS011;47835;52.778;5.956;2024-03-23T04:44:30;13.75;;;4.82;;
61895;SDS011;47835;52.778;5.956;2024-03-23T04:46:56;13.80;;;4.82;;
61895;SDS011;47835;52.778;5.956;2024-03-23T04:49:22;13.65;;;4.63;;
61895;SDS011;47835;52.778;5.956;2024-03-23T04:51:48;13.95;;;5.03;;
61895;SDS011;47835;52.778;5.956;2024-03-23T04:54:13;11.88;;;4.38;;
61895;SDS011;47835;52.778;5.956;2024-03-23T04:56:39;5.93;;;4.38;;
61895;SDS011;47835;52.778;5.956;2024-03-23T04:59:05;8.52;;;4.10;;
61895;SDS011;47835;52.778;5.956;2024-03-23T05:01:31;15.32;;;5.05;;
61895;SDS011;47835;52.778;5.956;2024-03-23T05:03:57;15.18;;;5.20;;
61895;SDS011;47835;52.778;5.956;2024-03-23T05:06:23;9.85;;;4.10;;
61895;SDS011;47835;52.778;5.956;2024-03-23T05:08:49;15.90;;;4.88;;
61895;SDS011;47835;52.778;5.956;2024-03-23T05:11:15;14.45;;;4.53;;
61895;SDS011;47835;52.778;5.956;2024-03-23T05:13:41;10.07;;;3.95;;
61895;SDS011;47835;52.778;5.956;2024-03-23T05:16:07;13.88;;;3.97;;
61895;SDS011;47835;52.778;5.956;2024-03-23T05:18:33;10.43;;;3.65;;
61895;SDS011;47835;52.778;5.956;2024-03-23T05:20:59;10.73;;;4.00;;
61895;SDS011;47835;52.778;5.956;2024-03-23T05:23:25;9.80;;;4.22;;
61895;SDS011;47835;52.778;5.956;2024-03-23T05:25:51;10.43;;;3.67;;
61895;SDS011;47835;52.778;5.956;2024-03-23T05:28:18;10.88;;;4.20;;
61895;SDS011;47835;52.778;5.956;2024-03-23T05:30:44;13.43;;;4.68;;
61895;SDS011;47835;52.778;5.956;2024-03-23T05:33:15;10.02;;;4.22;;
61895;SDS011;47835;52.778;5.956;2024-03-23T05:35:42;8.10;;;3.55;;
61895;SDS011;47835;52.778;5.956;2024-03-23T05:38:07;11.02;;;4.45;;
61895;SDS011;47835;52.778;5.956;2024-03-23T05:40:33;8.02;;;4.30;;
61895;SDS011;47835;52.778;5.956;2024-03-23T05:43:02;6.88;;;4.38;;
61895;SDS011;47835;52.778;5.956;2024-03-23T05:45:28;7.90;;;3.97;;
61895;SDS011;47835;52.778;5.956;2024-03-23T05:47:54;7.22;;;4.30;;
61895;SDS011;47835;52.778;5.956;2024-03-23T05:50:22;9.02;;;4.03;;
61895;SDS011;47835;52.778;5.956;2024-03-23T05:52:48;10.07;;;4.57;;
61895;SDS011;47835;52.778;5.956;2024-03-23T05:55:14;7.57;;;3.97;;
61895;SDS011;47835;52.778;5.956;2024-03-23T05:57:40;14.77;;;4.57;;
61895;SDS011;47835;52.778;5.956;2024-03-23T06:00:06;7.93;;;4.28;;
61895;SDS011;47835;52.778;5.956;2024-03-23T06:02:35;12.65;;;4.95;;
61895;SDS011;47835;52.778;5.956;2024-03-23T06:05:01;22.67;;;6.30;;
61895;SDS011;47835;52.778;5.956;2024-03-23T06:07:27;6.00;;;4.60;;
61895;SDS011;47835;52.778;5.956;2024-03-23T06:09:52;19.15;;;6.20;;
61895;SDS011;47835;52.778;5.956;2024-03-23T06:12:21;15.73;;;7.45;;
61895;SDS011;47835;52.778;5.956;2024-03-23T06:14:46;11.80;;;6.55;;
61895;SDS011;47835;52.778;5.956;2024-03-23T06:17:14;13.20;;;6.35;;
61895;SDS011;47835;52.778;5.956;2024-03-23T06:19:40;14.73;;;6.75;;
61895;SDS011;47835;52.778;5.956;2024-03-23T06:22:06;15.75;;;6.75;;
61895;SDS011;47835;52.778;5.956;2024-03-23T06:24:31;12.95;;;8.00;;
61895;SDS011;47835;52.778;5.956;2024-03-23T06:26:57;13.75;;;9.27;;
61895;SDS011;47835;52.778;5.956;2024-03-23T06:29:23;11.32;;;6.93;;
61895;SDS011;47835;52.778;5.956;2024-03-23T06:31:55;17.23;;;8.30;;
61895;SDS011;47835;52.778;5.956;2024-03-23T06:34:21;14.00;;;6.88;;
61895;SDS011;47835;52.778;5.956;2024-03-23T06:36:47;13.57;;;6.85;;
61895;SDS011;47835;52.778;5.956;2024-03-23T06:39:14;13.63;;;6.20;;
61895;SDS011;47835;52.778;5.956;2024-03-23T06:41:53;11.40;;;6.88;;
61895;SDS011;47835;52.778;5.956;2024-03-23T06:44:19;9.18;;;7.03;;
61895;SDS011;47835;52.778;5.956;2024-03-23T06:46:45;11.00;;;6.90;;
61895;SDS011;47835;52.778;5.956;2024-03-23T06:49:11;13.07;;;6.93;;
61895;SDS011;47835;52.778;5.956;2024-03-23T06:51:37;21.02;;;10.30;;
61895;SDS011;47835;52.778;5.956;2024-03-23T06:54:05;11.80;;;6.03;;
61895;SDS011;47835;52.778;5.956;2024-03-23T06:56:31;12.43;;;5.35;;
61895;SDS011;47835;52.778;5.956;2024-03-23T06:58:57;4.45;;;3.75;;
61895;SDS011;47835;52.778;5.956;2024-03-23T07:01:24;6.90;;;3.13;;
61895;SDS011;47835;52.778;5.956;2024-03-23T07:03:49;7.38;;;4.05;;
61895;SDS011;47835;52.778;5.956;2024-03-23T07:06:15;3.85;;;2.45;;
61895;SDS011;47835;52.778;5.956;2024-03-23T07:08:40;3.83;;;2.88;;
61895;SDS011;47835;52.778;5.956;2024-03-23T07:11:06;4.35;;;2.40;;
61895;SDS011;47835;52.778;5.956;2024-03-23T07:13:32;3.25;;;2.30;;
61895;SDS011;47835;52.778;5.956;2024-03-23T07:15:57;3.28;;;2.58;;
61895;SDS011;47835;52.778;5.956;2024-03-23T07:18:25;3.20;;;2.40;;
61895;SDS011;47835;52.778;5.956;2024-03-23T07:20:56;5.55;;;2.90;;
61895;SDS011;47835;52.778;5.956;2024-03-23T07:23:23;5.03;;;2.50;;
61895;SDS011;47835;52.778;5.956;2024-03-23T07:28:28;4.25;;;3.20;;
61895;SDS011;47835;52.778;5.956;2024-03-23T07:31:07;5.35;;;2.70;;
61895;SDS011;47835;52.778;5.956;2024-03-23T07:33:36;6.85;;;2.90;;
61895;SDS011;47835;52.778;5.956;2024-03-23T07:36:07;3.35;;;3.05;;
61895;SDS011;47835;52.778;5.956;2024-03-23T07:38:33;4.20;;;3.20;;
61895;SDS011;47835;52.778;5.956;2024-03-23T07:41:02;4.22;;;3.35;;
61895;SDS011;47835;52.778;5.956;2024-03-23T07:43:29;3.60;;;3.30;;
61895;SDS011;47835;52.778;5.956;2024-03-23T07:45:54;4.75;;;3.92;;
61895;SDS011;47835;52.778;5.956;2024-03-23T07:48:21;5.35;;;3.72;;
61895;SDS011;47835;52.778;5.956;2024-03-23T07:51:06;4.40;;;4.00;;
61895;SDS011;47835;52.778;5.956;2024-03-23T07:53:33;7.13;;;4.50;;
61895;SDS011;47835;52.778;5.956;2024-03-23T07:56:00;6.10;;;4.32;;
61895;SDS011;47835;52.778;5.956;2024-03-23T07:58:27;7.25;;;3.28;;
61895;SDS011;47835;52.778;5.956;2024-03-23T08:00:53;5.50;;;4.28;;
61895;SDS011;47835;52.778;5.956;2024-03-23T08:03:19;7.22;;;5.10;;
61895;SDS011;47835;52.778;5.956;2024-03-23T08:05:45;8.15;;;4.20;;
61895;SDS011;47835;52.778;5.956;2024-03-23T08:08:11;9.10;;;3.47;;
61895;SDS011;47835;52.778;5.956;2024-03-23T08:10:37;5.57;;;3.92;;
61895;SDS011;47835;52.778;5.956;2024-03-23T08:13:18;8.43;;;4.90;;
61895;SDS011;47835;52.778;5.956;2024-03-23T08:15:44;8.82;;;4.70;;
61895;SDS011;47835;52.778;5.956;2024-03-23T08:18:10;8.80;;;4.20;;
61895;SDS011;47835;52.778;5.956;2024-03-23T08:20:37;8.40;;;4.13;;
61895;SDS011;47835;52.778;5.956;2024-03-23T08:23:02;9.30;;;3.72;;
61895;SDS011;47835;52.778;5.956;2024-03-23T08:25:31;10.98;;;5.72;;
61895;SDS011;47835;52.778;5.956;2024-03-23T08:27:57;7.70;;;3.17;;
61895;SDS011;47835;52.778;5.956;2024-03-23T08:30:23;9.15;;;3.17;;
61895;SDS011;47835;52.778;5.956;2024-03-23T08:32:48;6.10;;;2.40;;
61895;SDS011;47835;52.778;5.956;2024-03-23T08:35:14;7.45;;;2.83;;
61895;SDS011;47835;52.778;5.956;2024-03-23T08:37:39;5.75;;;2.47;;
61895;SDS011;47835;52.778;5.956;2024-03-23T08:40:05;6.00;;;2.58;;
61895;SDS011;47835;52.778;5.956;2024-03-23T08:42:31;5.00;;;2.88;;
61895;SDS011;47835;52.778;5.956;2024-03-23T08:44:57;4.20;;;2.72;;
61895;SDS011;47835;52.778;5.956;2024-03-23T08:47:23;6.68;;;2.50;;
61895;SDS011;47835;52.778;5.956;2024-03-23T08:49:48;9.25;;;2.80;;
61895;SDS011;47835;52.778;5.956;2024-03-23T08:52:14;6.88;;;2.60;;
61895;SDS011;47835;52.778;5.956;2024-03-23T08:54:40;3.42;;;2.72;;
61895;SDS011;47835;52.778;5.956;2024-03-23T08:57:05;6.45;;;3.03;;
61895;SDS011;47835;52.778;5.956;2024-03-23T08:59:33;5.18;;;3.05;;
61895;SDS011;47835;52.778;5.956;2024-03-23T09:01:58;8.13;;;2.75;;
61895;SDS011;47835;52.778;5.956;2024-03-23T09:04:24;4.63;;;2.63;;
61895;SDS011;47835;52.778;5.956;2024-03-23T09:06:49;7.03;;;2.90;;
61895;SDS011;47835;52.778;5.956;2024-03-23T09:09:16;6.88;;;3.30;;
61895;SDS011;47835;52.778;5.956;2024-03-23T09:11:42;5.10;;;2.65;;
61895;SDS011;47835;52.778;5.956;2024-03-23T09:14:07;7.55;;;2.63;;
61895;SDS011;47835;52.778;5.956;2024-03-23T09:16:34;5.90;;;2.10;;
61895;SDS011;47835;52.778;5.956;2024-03-23T09:19:00;7.15;;;2.00;;
61895;SDS011;47835;52.778;5.956;2024-03-23T09:21:26;5.75;;;1.92;;
61895;SDS011;47835;52.778;5.956;2024-03-23T09:23:51;6.10;;;1.80;;
61895;SDS011;47835;52.778;5.956;2024-03-23T09:26:17;2.65;;;1.40;;
61895;SDS011;47835;52.778;5.956;2024-03-23T09:28:43;5.72;;;1.83;;
61895;SDS011;47835;52.778;5.956;2024-03-23T09:31:08;3.10;;;1.90;;
61895;SDS011;47835;52.778;5.956;2024-03-23T09:33:39;3.33;;;1.70;;
61895;SDS011;47835;52.778;5.956;2024-03-23T09:36:11;7.70;;;2.65;;
61895;SDS011;47835;52.778;5.956;2024-03-23T09:38:36;3.38;;;2.05;;
61895;SDS011;47835;52.778;5.956;2024-03-23T09:41:06;4.95;;;1.88;;
61895;SDS011;47835;52.778;5.956;2024-03-23T09:43:33;4.18;;;2.78;;
61895;SDS011;47835;52.778;5.956;2024-03-23T09:48:31;6.47;;;2.85;;
61895;SDS011;47835;52.778;5.956;2024-03-23T09:54:33;5.82;;;2.90;;
61895;SDS011;47835;52.778;5.956;2024-03-23T09:57:22;9.50;;;3.20;;
61895;SDS011;47835;52.778;5.956;2024-03-23T09:59:55;7.75;;;3.63;;
61895;SDS011;47835;52.778;5.956;2024-03-23T10:02:28;5.38;;;2.80;;
61895;SDS011;47835;52.778;5.956;2024-03-23T10:11:13;9.23;;;2.55;;
61895;SDS011;47835;52.778;5.956;2024-03-23T10:13:41;8.00;;;2.97;;
61895;SDS011;47835;52.778;5.956;2024-03-23T10:16:08;10.00;;;2.03;;
61895;SDS011;47835;52.778;5.956;2024-03-23T10:18:38;4.80;;;2.67;;
61895;SDS011;47835;52.778;5.956;2024-03-23T10:21:17;8.77;;;2.53;;
61895;SDS011;47835;52.778;5.956;2024-03-23T10:27:30;7.82;;;2.50;;
61895;SDS011;47835;52.778;5.956;2024-03-23T10:49:36;11.02;;;5.35;;
61895;SDS011;47835;52.778;5.956;2024-03-23T10:52:48;14.38;;;6.72;;
61895;SDS011;47835;52.778;5.956;2024-03-23T11:07:52;5.45;;;2.25;;
61895;SDS011;47835;52.778;5.956;2024-03-23T11:10:57;12.15;;;3.70;;
61895;SDS011;47835;52.778;5.956;2024-03-23T11:14:13;6.45;;;3.55;;
61895;SDS011;47835;52.778;5.956;2024-03-23T11:20:49;5.93;;;3.40;;
61895;SDS011;47835;52.778;5.956;2024-03-23T11:24:15;125.53;;;67.20;;
61895;SDS011;47835;52.778;5.956;2024-03-23T11:27:23;194.70;;;107.35;;
61895;SDS011;47835;52.778;5.956;2024-03-23T11:30:09;182.25;;;106.78;;
61895;SDS011;47835;52.778;5.956;2024-03-23T11:33:01;109.03;;;62.75;;
61895;SDS011;47835;52.778;5.956;2024-03-23T11:35:39;108.07;;;57.10;;
61895;SDS011;47835;52.778;5.956;2024-03-23T11:38:19;14.70;;;6.28;;
61895;SDS011;47835;52.778;5.956;2024-03-23T11:40:54;7.32;;;3.03;;
61895;SDS011;47835;52.778;5.956;2024-03-23T11:43:20;144.93;;;88.78;;
61895;SDS011;47835;52.778;5.956;2024-03-23T11:45:50;39.88;;;24.08;;
61895;SDS011;47835;52.778;5.956;2024-03-23T11:48:22;90.60;;;46.60;;
61895;SDS011;47835;52.778;5.956;2024-03-23T11:50:54;87.50;;;46.67;;
61895;SDS011;47835;52.778;5.956;2024-03-23T11:56:08;34.22;;;18.38;;
61895;SDS011;47835;52.778;5.956;2024-03-23T11:58:35;11.40;;;5.43;;
61895;SDS011;47835;52.778;5.956;2024-03-23T12:01:01;35.22;;;16.90;;
61895;SDS011;47835;52.778;5.956;2024-03-23T12:03:32;24.77;;;12.32;;
61895;SDS011;47835;52.778;5.956;2024-03-23T12:15:07;5.27;;;3.80;;
61895;SDS011;47835;52.778;5.956;2024-03-23T12:23:54;9.77;;;2.75;;
61895;SDS011;47835;52.778;5.956;2024-03-23T12:29:43;16.15;;;6.97;;
61895;SDS011;47835;52.778;5.956;2024-03-23T12:32:36;21.88;;;9.05;;
61895;SDS011;47835;52.778;5.956;2024-03-23T12:35:02;24.35;;;14.25;;
61895;SDS011;47835;52.778;5.956;2024-03-23T12:37:28;24.98;;;9.68;;
61895;SDS011;47835;52.778;5.956;2024-03-23T12:39:54;8.23;;;3.35;;
61895;SDS011;47835;52.778;5.956;2024-03-23T12:42:21;7.60;;;2.85;;
61895;SDS011;47835;52.778;5.956;2024-03-23T12:44:47;4.50;;;2.30;;
61895;SDS011;47835;52.778;5.956;2024-03-23T12:47:13;8.05;;;2.35;;
61895;SDS011;47835;52.778;5.956;2024-03-23T12:49:39;4.03;;;2.20;;
61895;SDS011;47835;52.778;5.956;2024-03-23T12:52:05;4.65;;;2.40;;
61895;SDS011;47835;52.778;5.956;2024-03-23T12:54:32;9.15;;;4.70;;
61895;SDS011;47835;52.778;5.956;2024-03-23T12:56:59;11.73;;;3.50;;
61895;SDS011;47835;52.778;5.956;2024-03-23T12:59:25;5.78;;;2.72;;
61895;SDS011;47835;52.778;5.956;2024-03-23T13:01:51;10.23;;;3.95;;
61895;SDS011;47835;52.778;5.956;2024-03-23T13:04:17;5.22;;;2.15;;
61895;SDS011;47835;52.778;5.956;2024-03-23T13:06:43;7.18;;;3.13;;
61895;SDS011;47835;52.778;5.956;2024-03-23T13:09:09;5.72;;;2.40;;
61895;SDS011;47835;52.778;5.956;2024-03-23T13:11:35;6.20;;;2.78;;
61895;SDS011;47835;52.778;5.956;2024-03-23T13:14:01;7.93;;;3.40;;
61895;SDS011;47835;52.778;5.956;2024-03-23T13:16:29;6.65;;;3.30;;
61895;SDS011;47835;52.778;5.956;2024-03-23T13:18:54;4.78;;;2.40;;
61895;SDS011;47835;52.778;5.956;2024-03-23T13:21:20;9.38;;;2.58;;
61895;SDS011;47835;52.778;5.956;2024-03-23T13:23:47;9.38;;;2.55;;
61895;SDS011;47835;52.778;5.956;2024-03-23T13:26:13;3.10;;;2.20;;
61895;SDS011;47835;52.778;5.956;2024-03-23T16:08:31;13.63;;;7.43;;
61895;SDS011;47835;52.778;5.956;2024-03-23T16:11:00;22.73;;;11.52;;
61895;SDS011;47835;52.778;5.956;2024-03-23T16:13:27;22.60;;;13.73;;
61895;SDS011;47835;52.778;5.956;2024-03-23T16:15:56;18.58;;;9.27;;
61895;SDS011;47835;52.778;5.956;2024-03-23T16:18:23;9.55;;;3.42;;
61895;SDS011;47835;52.778;5.956;2024-03-23T16:20:53;7.25;;;3.97;;
61895;SDS011;47835;52.778;5.956;2024-03-23T16:23:19;9.43;;;5.25;;
61895;SDS011;47835;52.778;5.956;2024-03-23T16:25:52;13.18;;;8.32;;
61895;SDS011;47835;52.778;5.956;2024-03-23T16:28:28;14.05;;;7.43;;
61895;SDS011;47835;52.778;5.956;2024-03-23T16:30:59;8.57;;;4.90;;
61895;SDS011;47835;52.778;5.956;2024-03-23T16:33:26;13.50;;;5.80;;
61895;SDS011;47835;52.778;5.956;2024-03-23T16:35:56;7.72;;;4.00;;
61895;SDS011;47835;52.778;5.956;2024-03-23T16:38:22;7.22;;;3.50;;
61895;SDS011;47835;52.778;5.956;2024-03-23T16:40:55;4.53;;;2.83;;
61895;SDS011;47835;52.778;5.956;2024-03-23T16:43:21;2.13;;;1.83;;
61895;SDS011;47835;52.778;5.956;2024-03-23T16:50:59;25.35;;;12.38;;
61895;SDS011;47835;52.778;5.956;2024-03-23T16:53:29;7.95;;;3.45;;
61895;SDS011;47835;52.778;5.956;2024-03-23T16:56:02;3.00;;;2.35;;
61895;SDS011;47835;52.778;5.956;2024-03-23T16:58:30;8.30;;;3.13;;
61895;SDS011;47835;52.778;5.956;2024-03-23T17:00:56;9.75;;;5.07;;
61895;SDS011;47835;52.778;5.956;2024-03-23T17:03:26;5.10;;;2.60;;
61895;SDS011;47835;52.778;5.956;2024-03-23T17:05:52;2.55;;;1.58;;
61895;SDS011;47835;52.778;5.956;2024-03-23T17:08:19;2.60;;;1.90;;
61895;SDS011;47835;52.778;5.956;2024-03-23T17:10:44;3.92;;;2.55;;
61895;SDS011;47835;52.778;5.956;2024-03-23T17:13:11;3.88;;;2.45;;
61895;SDS011;47835;52.778;5.956;2024-03-23T17:15:46;2.30;;;2.10;;
61895;SDS011;47835;52.778;5.956;2024-03-23T17:18:12;2.10;;;1.92;;
61895;SDS011;47835;52.778;5.956;2024-03-23T17:20:38;2.28;;;2.08;;
61895;SDS011;47835;52.778;5.956;2024-03-23T17:23:04;8.68;;;2.28;;
61895;SDS011;47835;52.778;5.956;2024-03-23T17:25:31;4.50;;;2.80;;
61895;SDS011;47835;52.778;5.956;2024-03-23T17:27:57;4.43;;;2.80;;
61895;SDS011;47835;52.778;5.956;2024-03-23T17:30:23;4.18;;;2.53;;
61895;SDS011;47835;52.778;5.956;2024-03-23T17:32:51;6.30;;;2.53;;
61895;SDS011;47835;52.778;5.956;2024-03-23T17:59:11;4.97;;;3.00;;
61895;SDS011;47835;52.778;5.956;2024-03-23T18:01:46;18.08;;;9.02;;
61895;SDS011;47835;52.778;5.956;2024-03-23T18:04:34;8.82;;;4.53;;
61895;SDS011;47835;52.778;5.956;2024-03-23T18:07:09;6.70;;;3.40;;
61895;SDS011;47835;52.778;5.956;2024-03-23T18:09:57;5.57;;;2.63;;
61895;SDS011;47835;52.778;5.956;2024-03-23T18:12:29;5.50;;;3.00;;
61895;SDS011;47835;52.778;5.956;2024-03-23T18:14:54;4.90;;;2.72;;
61895;SDS011;47835;52.778;5.956;2024-03-23T18:17:53;5.57;;;3.00;;
61895;SDS011;47835;52.778;5.956;2024-03-23T18:20:18;4.47;;;2.83;;
61895;SDS011;47835;52.778;5.956;2024-03-23T18:22:46;4.18;;;3.08;;
61895;SDS011;47835;52.778;5.956;2024-03-23T18:25:12;3.15;;;2.85;;
61895;SDS011;47835;52.778;5.956;2024-03-23T18:27:38;5.20;;;2.63;;
61895;SDS011;47835;52.778;5.956;2024-03-23T18:30:04;3.72;;;2.85;;
61895;SDS011;47835;52.778;5.956;2024-03-23T18:32:30;5.28;;;4.50;;
61895;SDS011;47835;52.778;5.956;2024-03-23T18:34:56;4.20;;;2.85;;
61895;SDS011;47835;52.778;5.956;2024-03-23T18:37:22;6.20;;;2.97;;
61895;SDS011;47835;52.778;5.956;2024-03-23T18:39:47;2.30;;;2.10;;
61895;SDS011;47835;52.778;5.956;2024-03-23T18:42:13;3.00;;;2.25;;
61895;SDS011;47835;52.778;5.956;2024-03-23T18:44:39;3.30;;;1.98;;
61895;SDS011;47835;52.778;5.956;2024-03-23T18:47:08;7.63;;;2.95;;
61895;SDS011;47835;52.778;5.956;2024-03-23T18:49:37;3.92;;;2.55;;
61895;SDS011;47835;52.778;5.956;2024-03-23T18:52:43;3.42;;;2.20;;
61895;SDS011;47835;52.778;5.956;2024-03-23T18:55:18;3.33;;;2.53;;
61895;SDS011;47835;52.778;5.956;2024-03-23T19:03:48;5.22;;;2.53;;
61895;SDS011;47835;52.778;5.956;2024-03-23T19:06:22;3.35;;;2.85;;
61895;SDS011;47835;52.778;5.956;2024-03-23T19:08:50;4.93;;;2.60;;
61895;SDS011;47835;52.778;5.956;2024-03-23T19:25:18;6.80;;;2.47;;
61895;SDS011;47835;52.778;5.956;2024-03-23T19:30:42;3.85;;;2.38;;
61895;SDS011;47835;52.778;5.956;2024-03-23T19:33:47;2.22;;;2.03;;
61895;SDS011;47835;52.778;5.956;2024-03-23T19:36:24;4.55;;;2.20;;
61895;SDS011;47835;52.778;5.956;2024-03-23T19:38:52;2.50;;;2.30;;
61895;SDS011;47835;52.778;5.956;2024-03-23T19:48:16;2.45;;;2.25;;
61895;SDS011;47835;52.778;5.956;2024-03-23T19:53:44;5.30;;;2.72;;
61895;SDS011;47835;52.778;5.956;2024-03-23T20:03:33;4.17;;;2.97;;
61895;SDS011;47835;52.778;5.956;2024-03-23T20:06:36;3.33;;;3.00;;
61895;SDS011;47835;52.778;5.956;2024-03-23T20:10:00;3.22;;;2.92;;
61895;SDS011;47835;52.778;5.956;2024-03-23T20:12:41;3.88;;;3.40;;
61895;SDS011;47835;52.778;5.956;2024-03-23T20:22:06;4.22;;;2.83;;
61895;SDS011;47835;52.778;5.956;2024-03-23T20:24:38;5.97;;;2.90;;
61895;SDS011;47835;52.778;5.956;2024-03-23T20:37:18;4.78;;;3.97;;
61895;SDS011;47835;52.778;5.956;2024-03-23T20:39:46;4.70;;;3.58;;
61895;SDS011;47835;52.778;5.956;2024-03-23T20:42:11;4.63;;;3.33;;
61895;SDS011;47835;52.778;5.956;2024-03-23T20:44:37;4.13;;;3.80;;
61895;SDS011;47835;52.778;5.956;2024-03-23T20:47:03;8.05;;;3.72;;
61895;SDS011;47835;52.778;5.956;2024-03-23T20:52:32;4.20;;;3.25;;
61895;SDS011;47835;52.778;5.956;2024-03-23T20:55:05;3.75;;;3.33;;
61895;SDS011;47835;52.778;5.956;2024-03-23T21:04:41;6.57;;;4.13;;
61895;SDS011;47835;52.778;5.956;2024-03-23T21:10:08;7.35;;;4.90;;
61895;SDS011;47835;52.778;5.956;2024-03-23T21:12:34;8.77;;;4.65;;
61895;SDS011;47835;52.778;5.956;2024-03-23T21:14:59;4.90;;;4.40;;
61895;SDS011;47835;52.778;5.956;2024-03-23T21:21:13;7.68;;;4.97;;